sensor_id;sensor_type;location;lat;lon;timestamp;temperature;humidity
70820;DHT22;58439;51.046;13.692;2023-06-24T00:00:16;16.00;99.90
70820;DHT22;58439;51.046;13.692;2023-06-24T00:02:46;16.00;99.90
70820;DHT22;58439;51.046;13.692;2023-06-24T00:05:13;16.10;99.90
70820;DHT22;58439;51.046;13.692;2023-06-24T00:07:40;16.10;99.90
70820;DHT22;58439;51.046;13.692;2023-06-24T00:10:13;16.10;99.90
70820;DHT22;58439;51.046;13.692;2023-06-24T00:12:44;16.10;99.90
70820;DHT22;58439;51.046;13.692;2023-06-24T00:15:11;16.10;99.90
70820;DHT22;58439;51.046;13.692;2023-06-24T00:17:39;16.10;99.90
70820;DHT22;58439;51.046;13.692;2023-06-24T00:20:07;16.10;99.90
70820;DHT22;58439;51.046;13.692;2023-06-24T00:22:38;16.10;99.90
70820;DHT22;58439;51.046;13.692;2023-06-24T00:25:11;16.10;99.90
70820;DHT22;58439;51.046;13.692;2023-06-24T00:27:38;16.10;99.90
70820;DHT22;58439;51.046;13.692;2023-06-24T00:30:06;16.10;99.90
70820;DHT22;58439;51.046;13.692;2023-06-24T00:32:34;16.10;99.90
70820;DHT22;58439;51.046;13.692;2023-06-24T00:35:02;16.20;99.90
70820;DHT22;58439;51.046;13.692;2023-06-24T00:37:29;16.20;99.90
70820;DHT22;58439;51.046;13.692;2023-06-24T00:39:56;16.20;99.90
70820;DHT22;58439;51.046;13.692;2023-06-24T00:42:23;16.20;99.90
70820;DHT22;58439;51.046;13.692;2023-06-24T00:44:50;16.20;99.90
70820;DHT22;58439;51.046;13.692;2023-06-24T00:47:18;16.20;99.90
70820;DHT22;58439;51.046;13.692;2023-06-24T00:49:45;16.20;99.90
70820;DHT22;58439;51.046;13.692;2023-06-24T00:52:12;16.20;99.90
70820;DHT22;58439;51.046;13.692;2023-06-24T00:54:44;16.20;99.90
70820;DHT22;58439;51.046;13.692;2023-06-24T00:57:11;16.20;99.90
70820;DHT22;58439;51.046;13.692;2023-06-24T00:59:40;16.20;99.90
70820;DHT22;58439;51.046;13.692;2023-06-24T01:02:10;16.20;99.90
70820;DHT22;58439;51.046;13.692;2023-06-24T01:04:38;16.20;99.90
70820;DHT22;58439;51.046;13.692;2023-06-24T01:07:06;16.20;99.90
70820;DHT22;58439;51.046;13.692;2023-06-24T01:09:36;16.20;99.90
70820;DHT22;58439;51.046;13.692;2023-06-24T01:12:03;16.20;99.90
70820;DHT22;58439;51.046;13.692;2023-06-24T01:14:30;16.20;99.90
70820;DHT22;58439;51.046;13.692;2023-06-24T01:17:12;16.30;99.90
70820;DHT22;58439;51.046;13.692;2023-06-24T01:33:03;16.30;99.90
70820;DHT22;58439;51.046;13.692;2023-06-24T01:35:34;16.40;99.90
70820;DHT22;58439;51.046;13.692;2023-06-24T01:38:10;16.40;99.90
70820;DHT22;58439;51.046;13.692;2023-06-24T01:40:48;16.40;99.90
70820;DHT22;58439;51.046;13.692;2023-06-24T01:43:18;16.40;99.90
70820;DHT22;58439;51.046;13.692;2023-06-24T01:45:52;16.50;99.90
70820;DHT22;58439;51.046;13.692;2023-06-24T01:48:44;16.50;99.90
70820;DHT22;58439;51.046;13.692;2023-06-24T01:55:16;16.50;99.90
70820;DHT22;58439;51.046;13.692;2023-06-24T01:57:48;16.50;99.90
70820;DHT22;58439;51.046;13.692;2023-06-24T02:00:18;16.50;99.90
70820;DHT22;58439;51.046;13.692;2023-06-24T02:02:50;16.50;99.90
70820;DHT22;58439;51.046;13.692;2023-06-24T02:05:19;16.50;99.90
70820;DHT22;58439;51.046;13.692;2023-06-24T02:07:51;16.50;99.90
70820;DHT22;58439;51.046;13.692;2023-06-24T02:10:21;16.50;99.90
70820;DHT22;58439;51.046;13.692;2023-06-24T02:12:51;16.50;99.90
70820;DHT22;58439;51.046;13.692;2023-06-24T02:15:21;16.50;99.90
70820;DHT22;58439;51.046;13.692;2023-06-24T02:17:51;16.50;99.90
70820;DHT22;58439;51.046;13.692;2023-06-24T02:20:19;16.50;99.90
70820;DHT22;58439;51.046;13.692;2023-06-24T02:22:50;16.50;99.90
70820;DHT22;58439;51.046;13.692;2023-06-24T02:25:17;16.50;99.90
70820;DHT22;58439;51.046;13.692;2023-06-24T02:27:45;16.50;99.90
70820;DHT22;58439;51.046;13.692;2023-06-24T02:30:13;16.40;99.90
70820;DHT22;58439;51.046;13.692;2023-06-24T02:32:41;16.40;99.90
70820;DHT22;58439;51.046;13.692;2023-06-24T02:35:08;16.40;99.90
70820;DHT22;58439;51.046;13.692;2023-06-24T02:37:35;16.40;99.90
70820;DHT22;58439;51.046;13.692;2023-06-24T02:40:03;16.50;99.90
70820;DHT22;58439;51.046;13.692;2023-06-24T02:42:32;16.50;99.90
70820;DHT22;58439;51.046;13.692;2023-06-24T02:45:00;16.40;99.90
70820;DHT22;58439;51.046;13.692;2023-06-24T02:47:29;16.40;99.90
70820;DHT22;58439;51.046;13.692;2023-06-24T02:49:58;16.40;99.90
70820;DHT22;58439;51.046;13.692;2023-06-24T02:52:26;16.40;99.90
70820;DHT22;58439;51.046;13.692;2023-06-24T02:54:57;16.40;99.90
70820;DHT22;58439;51.046;13.692;2023-06-24T02:57:47;16.40;99.90
70820;DHT22;58439;51.046;13.692;2023-06-24T03:00:37;16.40;99.90
70820;DHT22;58439;51.046;13.692;2023-06-24T03:03:19;16.40;99.90
70820;DHT22;58439;51.046;13.692;2023-06-24T03:05:53;16.40;99.90
70820;DHT22;58439;51.046;13.692;2023-06-24T03:08:27;16.50;99.90
70820;DHT22;58439;51.046;13.692;2023-06-24T03:10:56;16.40;99.90
70820;DHT22;58439;51.046;13.692;2023-06-24T03:13:27;16.40;99.90
70820;DHT22;58439;51.046;13.692;2023-06-24T03:16:03;16.50;99.90
70820;DHT22;58439;51.046;13.692;2023-06-24T03:18:37;16.40;99.90
70820;DHT22;58439;51.046;13.692;2023-06-24T03:21:13;16.40;99.90
70820;DHT22;58439;51.046;13.692;2023-06-24T03:23:41;16.30;99.90
70820;DHT22;58439;51.046;13.692;2023-06-24T03:26:11;16.30;99.90
70820;DHT22;58439;51.046;13.692;2023-06-24T03:28:40;16.20;99.90
70820;DHT22;58439;51.046;13.692;2023-06-24T03:31:11;16.20;99.90
70820;DHT22;58439;51.046;13.692;2023-06-24T03:33:39;16.20;99.90
70820;DHT22;58439;51.046;13.692;2023-06-24T03:36:13;16.10;99.90
70820;DHT22;58439;51.046;13.692;2023-06-24T03:38:40;16.10;99.90
70820;DHT22;58439;51.046;13.692;2023-06-24T03:41:08;16.10;99.90
70820;DHT22;58439;51.046;13.692;2023-06-24T03:43:35;16.00;99.90
70820;DHT22;58439;51.046;13.692;2023-06-24T03:46:02;16.00;99.90
70820;DHT22;58439;51.046;13.692;2023-06-24T03:48:30;16.00;99.90
70820;DHT22;58439;51.046;13.692;2023-06-24T03:50:57;16.00;99.90
70820;DHT22;58439;51.046;13.692;2023-06-24T03:53:27;16.00;99.90
70820;DHT22;58439;51.046;13.692;2023-06-24T03:55:54;15.90;99.90
70820;DHT22;58439;51.046;13.692;2023-06-24T03:58:22;16.00;99.90
70820;DHT22;58439;51.046;13.692;2023-06-24T04:00:49;16.00;99.90
70820;DHT22;58439;51.046;13.692;2023-06-24T04:03:16;16.00;99.90
70820;DHT22;58439;51.046;13.692;2023-06-24T04:05:45;16.00;99.90
70820;DHT22;58439;51.046;13.692;2023-06-24T04:08:12;16.00;99.90
70820;DHT22;58439;51.046;13.692;2023-06-24T04:10:39;16.00;99.90
70820;DHT22;58439;51.046;13.692;2023-06-24T04:13:11;16.10;99.90
70820;DHT22;58439;51.046;13.692;2023-06-24T04:15:38;16.10;99.90
70820;DHT22;58439;51.046;13.692;2023-06-24T04:18:06;16.10;99.90
70820;DHT22;58439;51.046;13.692;2023-06-24T04:20:34;16.20;99.90
70820;DHT22;58439;51.046;13.692;2023-06-24T04:23:04;16.20;99.90
70820;DHT22;58439;51.046;13.692;2023-06-24T04:25:37;16.30;99.90
70820;DHT22;58439;51.046;13.692;2023-06-24T04:28:04;16.40;99.90
70820;DHT22;58439;51.046;13.692;2023-06-24T04:30:32;16.50;99.90
70820;DHT22;58439;51.046;13.692;2023-06-24T04:33:05;16.50;99.90
70820;DHT22;58439;51.046;13.692;2023-06-24T04:35:36;16.60;99.90
70820;DHT22;58439;51.046;13.692;2023-06-24T04:38:14;16.60;99.90
70820;DHT22;58439;51.046;13.692;2023-06-24T04:40:47;16.60;99.90
70820;DHT22;58439;51.046;13.692;2023-06-24T04:43:14;16.60;99.90
70820;DHT22;58439;51.046;13.692;2023-06-24T04:45:44;16.60;99.90
70820;DHT22;58439;51.046;13.692;2023-06-24T04:48:12;16.60;99.90
70820;DHT22;58439;51.046;13.692;2023-06-24T04:50:42;16.70;99.90
70820;DHT22;58439;51.046;13.692;2023-06-24T04:53:09;16.70;99.90
70820;DHT22;58439;51.046;13.692;2023-06-24T04:55:36;16.80;99.90
70820;DHT22;58439;51.046;13.692;2023-06-24T04:58:06;16.90;99.90
70820;DHT22;58439;51.046;13.692;2023-06-24T05:00:34;16.90;99.90
70820;DHT22;58439;51.046;13.692;2023-06-24T05:03:04;17.00;99.90
70820;DHT22;58439;51.046;13.692;2023-06-24T05:05:31;17.10;99.90
70820;DHT22;58439;51.046;13.692;2023-06-24T05:08:02;17.10;99.90
70820;DHT22;58439;51.046;13.692;2023-06-24T05:10:30;17.10;99.90
70820;DHT22;58439;51.046;13.692;2023-06-24T05:13:01;17.10;99.90
70820;DHT22;58439;51.046;13.692;2023-06-24T05:15:56;17.10;99.90
70820;DHT22;58439;51.046;13.692;2023-06-24T05:18:58;17.20;99.90
70820;DHT22;58439;51.046;13.692;2023-06-24T05:21:43;17.20;99.90
70820;DHT22;58439;51.046;13.692;2023-06-24T05:24:39;17.20;99.90
70820;DHT22;58439;51.046;13.692;2023-06-24T05:28:16;17.20;99.90
70820;DHT22;58439;51.046;13.692;2023-06-24T05:31:03;17.20;99.90
70820;DHT22;58439;51.046;13.692;2023-06-24T05:33:37;17.20;99.90
70820;DHT22;58439;51.046;13.692;2023-06-24T05:36:10;17.30;99.90
70820;DHT22;58439;51.046;13.692;2023-06-24T05:38:40;17.30;99.90
70820;DHT22;58439;51.046;13.692;2023-06-24T05:44:34;17.40;99.90
70820;DHT22;58439;51.046;13.692;2023-06-24T05:47:05;17.40;99.90
70820;DHT22;58439;51.046;13.692;2023-06-24T05:49:33;17.30;99.90
70820;DHT22;58439;51.046;13.692;2023-06-24T05:52:12;17.30;99.90
70820;DHT22;58439;51.046;13.692;2023-06-24T05:54:39;17.30;99.90
70820;DHT22;58439;51.046;13.692;2023-06-24T05:57:06;17.30;99.90
70820;DHT22;58439;51.046;13.692;2023-06-24T05:59:33;17.30;99.90
70820;DHT22;58439;51.046;13.692;2023-06-24T06:02:08;17.30;99.90
70820;DHT22;58439;51.046;13.692;2023-06-24T06:04:38;17.30;99.90
70820;DHT22;58439;51.046;13.692;2023-06-24T06:07:20;17.30;99.90
70820;DHT22;58439;51.046;13.692;2023-06-24T06:09:47;17.20;99.90
70820;DHT22;58439;51.046;13.692;2023-06-24T06:12:15;17.20;99.90
70820;DHT22;58439;51.046;13.692;2023-06-24T06:14:42;17.20;99.90
70820;DHT22;58439;51.046;13.692;2023-06-24T06:17:09;17.20;99.90
70820;DHT22;58439;51.046;13.692;2023-06-24T06:19:36;17.10;99.90
70820;DHT22;58439;51.046;13.692;2023-06-24T06:22:05;17.10;99.90
70820;DHT22;58439;51.046;13.692;2023-06-24T06:24:36;17.00;99.90
70820;DHT22;58439;51.046;13.692;2023-06-24T06:27:04;16.90;99.90
70820;DHT22;58439;51.046;13.692;2023-06-24T06:29:31;16.90;99.90
70820;DHT22;58439;51.046;13.692;2023-06-24T06:31:59;16.90;99.90
70820;DHT22;58439;51.046;13.692;2023-06-24T06:34:26;16.90;99.90
70820;DHT22;58439;51.046;13.692;2023-06-24T06:36:53;16.80;99.90
70820;DHT22;58439;51.046;13.692;2023-06-24T06:39:20;16.80;99.90
70820;DHT22;58439;51.046;13.692;2023-06-24T06:41:48;16.80;99.90
70820;DHT22;58439;51.046;13.692;2023-06-24T06:44:18;16.80;99.90
70820;DHT22;58439;51.046;13.692;2023-06-24T06:46:45;16.80;99.90
70820;DHT22;58439;51.046;13.692;2023-06-24T06:49:12;16.90;99.90
70820;DHT22;58439;51.046;13.692;2023-06-24T06:51:40;17.00;99.90
70820;DHT22;58439;51.046;13.692;2023-06-24T06:54:07;17.00;99.90
70820;DHT22;58439;51.046;13.692;2023-06-24T06:56:34;17.10;99.90
70820;DHT22;58439;51.046;13.692;2023-06-24T06:59:04;17.10;99.90
70820;DHT22;58439;51.046;13.692;2023-06-24T07:01:35;17.10;99.90
70820;DHT22;58439;51.046;13.692;2023-06-24T07:04:09;17.10;99.90
70820;DHT22;58439;51.046;13.692;2023-06-24T07:06:46;17.10;99.90
70820;DHT22;58439;51.046;13.692;2023-06-24T07:09:22;17.20;99.90
70820;DHT22;58439;51.046;13.692;2023-06-24T07:11:55;17.20;99.90
70820;DHT22;58439;51.046;13.692;2023-06-24T07:14:22;17.30;99.90
70820;DHT22;58439;51.046;13.692;2023-06-24T07:16:50;17.40;99.90
70820;DHT22;58439;51.046;13.692;2023-06-24T07:19:17;17.50;99.90
70820;DHT22;58439;51.046;13.692;2023-06-24T07:21:44;17.50;99.90
70820;DHT22;58439;51.046;13.692;2023-06-24T07:24:11;17.70;99.90
70820;DHT22;58439;51.046;13.692;2023-06-24T07:26:39;17.80;99.90
70820;DHT22;58439;51.046;13.692;2023-06-24T07:29:07;18.00;99.90
70820;DHT22;58439;51.046;13.692;2023-06-24T07:31:36;18.20;99.90
70820;DHT22;58439;51.046;13.692;2023-06-24T07:34:04;18.50;99.90
70820;DHT22;58439;51.046;13.692;2023-06-24T07:36:32;18.70;99.90
70820;DHT22;58439;51.046;13.692;2023-06-24T07:38:59;19.00;99.90
70820;DHT22;58439;51.046;13.692;2023-06-24T07:41:26;19.10;99.90
70820;DHT22;58439;51.046;13.692;2023-06-24T07:43:54;19.30;99.90
70820;DHT22;58439;51.046;13.692;2023-06-24T07:46:21;19.30;99.90
70820;DHT22;58439;51.046;13.692;2023-06-24T07:48:49;19.20;99.90
70820;DHT22;58439;51.046;13.692;2023-06-24T07:51:16;19.00;99.90
70820;DHT22;58439;51.046;13.692;2023-06-24T07:53:43;18.80;99.90
70820;DHT22;58439;51.046;13.692;2023-06-24T07:56:10;18.70;99.90
70820;DHT22;58439;51.046;13.692;2023-06-24T07:58:38;18.80;99.90
70820;DHT22;58439;51.046;13.692;2023-06-24T08:01:05;18.90;99.90
70820;DHT22;58439;51.046;13.692;2023-06-24T08:03:33;19.10;99.90
70820;DHT22;58439;51.046;13.692;2023-06-24T08:06:01;19.30;99.90
70820;DHT22;58439;51.046;13.692;2023-06-24T08:08:28;19.30;99.90
70820;DHT22;58439;51.046;13.692;2023-06-24T08:10:55;19.40;99.90
70820;DHT22;58439;51.046;13.692;2023-06-24T08:13:23;19.30;99.90
70820;DHT22;58439;51.046;13.692;2023-06-24T08:15:50;19.30;99.90
70820;DHT22;58439;51.046;13.692;2023-06-24T08:18:17;19.20;99.90
70820;DHT22;58439;51.046;13.692;2023-06-24T08:20:44;19.20;99.90
70820;DHT22;58439;51.046;13.692;2023-06-24T08:23:11;19.20;99.90
70820;DHT22;58439;51.046;13.692;2023-06-24T08:25:38;19.30;99.90
70820;DHT22;58439;51.046;13.692;2023-06-24T08:28:06;19.50;99.90
70820;DHT22;58439;51.046;13.692;2023-06-24T08:30:33;19.60;99.90
70820;DHT22;58439;51.046;13.692;2023-06-24T08:33:00;19.60;99.90
70820;DHT22;58439;51.046;13.692;2023-06-24T08:35:28;19.40;98.30
70820;DHT22;58439;51.046;13.692;2023-06-24T08:37:56;19.30;98.10
70820;DHT22;58439;51.046;13.692;2023-06-24T08:40:23;19.40;98.50
70820;DHT22;58439;51.046;13.692;2023-06-24T08:42:50;19.70;98.20
70820;DHT22;58439;51.046;13.692;2023-06-24T08:45:18;20.00;97.70
70820;DHT22;58439;51.046;13.692;2023-06-24T08:47:47;20.20;97.50
70820;DHT22;58439;51.046;13.692;2023-06-24T08:50:18;20.20;97.50
70820;DHT22;58439;51.046;13.692;2023-06-24T08:52:50;20.10;96.50
70820;DHT22;58439;51.046;13.692;2023-06-24T08:55:23;20.10;95.50
70820;DHT22;58439;51.046;13.692;2023-06-24T08:57:51;20.20;94.30
70820;DHT22;58439;51.046;13.692;2023-06-24T09:00:21;20.20;91.70
70820;DHT22;58439;51.046;13.692;2023-06-24T09:02:49;20.30;88.70
70820;DHT22;58439;51.046;13.692;2023-06-24T09:05:16;20.50;88.90
70820;DHT22;58439;51.046;13.692;2023-06-24T09:07:44;20.70;87.00
70820;DHT22;58439;51.046;13.692;2023-06-24T09:10:29;20.70;85.20
70820;DHT22;58439;51.046;13.692;2023-06-24T09:13:05;20.60;86.50
70820;DHT22;58439;51.046;13.692;2023-06-24T09:15:37;20.60;86.10
70820;DHT22;58439;51.046;13.692;2023-06-24T09:18:05;20.80;81.40
70820;DHT22;58439;51.046;13.692;2023-06-24T09:20:33;20.80;75.00
70820;DHT22;58439;51.046;13.692;2023-06-24T09:23:11;20.90;73.70
70820;DHT22;58439;51.046;13.692;2023-06-24T09:25:43;21.00;74.70
70820;DHT22;58439;51.046;13.692;2023-06-24T09:28:13;21.00;73.20
70820;DHT22;58439;51.046;13.692;2023-06-24T09:30:40;21.10;70.10
70820;DHT22;58439;51.046;13.692;2023-06-24T09:33:11;21.20;72.70
70820;DHT22;58439;51.046;13.692;2023-06-24T09:35:39;21.40;69.40
70820;DHT22;58439;51.046;13.692;2023-06-24T09:38:08;21.50;65.20
70820;DHT22;58439;51.046;13.692;2023-06-24T09:40:36;21.40;64.50
70820;DHT22;58439;51.046;13.692;2023-06-24T09:43:04;21.10;67.10
70820;DHT22;58439;51.046;13.692;2023-06-24T09:45:31;21.30;68.70
70820;DHT22;58439;51.046;13.692;2023-06-24T09:47:58;21.40;65.50
70820;DHT22;58439;51.046;13.692;2023-06-24T09:50:26;21.30;66.30
70820;DHT22;58439;51.046;13.692;2023-06-24T09:52:55;21.40;57.60
70820;DHT22;58439;51.046;13.692;2023-06-24T09:55:24;21.40;58.50
70820;DHT22;58439;51.046;13.692;2023-06-24T09:57:53;21.50;57.50
70820;DHT22;58439;51.046;13.692;2023-06-24T10:00:21;21.60;58.20
70820;DHT22;58439;51.046;13.692;2023-06-24T10:02:49;21.80;55.20
70820;DHT22;58439;51.046;13.692;2023-06-24T10:05:20;21.70;53.60
70820;DHT22;58439;51.046;13.692;2023-06-24T10:07:48;21.70;54.70
70820;DHT22;58439;51.046;13.692;2023-06-24T10:10:15;21.80;55.90
70820;DHT22;58439;51.046;13.692;2023-06-24T10:12:43;22.00;52.90
70820;DHT22;58439;51.046;13.692;2023-06-24T10:15:10;22.20;54.30
70820;DHT22;58439;51.046;13.692;2023-06-24T10:17:38;22.20;56.80
70820;DHT22;58439;51.046;13.692;2023-06-24T10:20:06;22.20;60.90
70820;DHT22;58439;51.046;13.692;2023-06-24T10:22:34;22.20;61.10
70820;DHT22;58439;51.046;13.692;2023-06-24T10:25:05;22.20;60.00
70820;DHT22;58439;51.046;13.692;2023-06-24T10:27:40;22.10;57.30
70820;DHT22;58439;51.046;13.692;2023-06-24T10:30:19;21.80;56.60
70820;DHT22;58439;51.046;13.692;2023-06-24T10:32:51;22.00;59.90
70820;DHT22;58439;51.046;13.692;2023-06-24T10:35:27;22.40;57.40
70820;DHT22;58439;51.046;13.692;2023-06-24T10:38:00;22.70;54.20
70820;DHT22;58439;51.046;13.692;2023-06-24T10:40:35;22.60;53.90
70820;DHT22;58439;51.046;13.692;2023-06-24T10:43:44;22.60;55.00
70820;DHT22;58439;51.046;13.692;2023-06-24T10:46:14;22.70;51.60
70820;DHT22;58439;51.046;13.692;2023-06-24T10:48:43;22.70;49.20
70820;DHT22;58439;51.046;13.692;2023-06-24T10:51:10;22.80;47.50
70820;DHT22;58439;51.046;13.692;2023-06-24T10:53:38;22.70;46.80
70820;DHT22;58439;51.046;13.692;2023-06-24T10:56:32;22.40;47.70
70820;DHT22;58439;51.046;13.692;2023-06-24T10:59:02;22.40;49.60
70820;DHT22;58439;51.046;13.692;2023-06-24T11:01:30;22.70;50.30
70820;DHT22;58439;51.046;13.692;2023-06-24T11:04:05;23.20;48.40
70820;DHT22;58439;51.046;13.692;2023-06-24T11:06:38;23.50;47.30
70820;DHT22;58439;51.046;13.692;2023-06-24T11:10:04;23.40;47.50
70820;DHT22;58439;51.046;13.692;2023-06-24T11:12:43;23.40;46.80
70820;DHT22;58439;51.046;13.692;2023-06-24T11:15:16;23.10;46.50
70820;DHT22;58439;51.046;13.692;2023-06-24T11:17:56;23.50;47.00
70820;DHT22;58439;51.046;13.692;2023-06-24T11:24:24;25.10;42.20
70820;DHT22;58439;51.046;13.692;2023-06-24T11:27:46;24.90;42.70
70820;DHT22;58439;51.046;13.692;2023-06-24T11:30:44;24.10;43.70
70820;DHT22;58439;51.046;13.692;2023-06-24T11:33:31;23.70;45.50
70820;DHT22;58439;51.046;13.692;2023-06-24T11:36:09;23.70;44.00
70820;DHT22;58439;51.046;13.692;2023-06-24T11:38:45;24.10;42.50
70820;DHT22;58439;51.046;13.692;2023-06-24T11:41:25;25.00;41.10
70820;DHT22;58439;51.046;13.692;2023-06-24T11:44:30;25.80;39.30
70820;DHT22;58439;51.046;13.692;2023-06-24T11:50:59;27.50;37.00
70820;DHT22;58439;51.046;13.692;2023-06-24T11:53:45;27.30;34.40
70820;DHT22;58439;51.046;13.692;2023-06-24T11:56:15;26.50;35.70
70820;DHT22;58439;51.046;13.692;2023-06-24T11:58:50;26.40;35.70
70820;DHT22;58439;51.046;13.692;2023-06-24T12:01:58;26.10;36.10
70820;DHT22;58439;51.046;13.692;2023-06-24T12:04:52;26.20;36.80
70820;DHT22;58439;51.046;13.692;2023-06-24T12:07:20;26.70;36.40
70820;DHT22;58439;51.046;13.692;2023-06-24T12:09:48;26.90;34.60
70820;DHT22;58439;51.046;13.692;2023-06-24T12:12:15;27.40;33.80
70820;DHT22;58439;51.046;13.692;2023-06-24T12:14:42;27.70;33.40
70820;DHT22;58439;51.046;13.692;2023-06-24T12:17:14;28.00;32.60
70820;DHT22;58439;51.046;13.692;2023-06-24T12:19:52;28.20;32.10
70820;DHT22;58439;51.046;13.692;2023-06-24T12:22:22;27.70;31.80
70820;DHT22;58439;51.046;13.692;2023-06-24T12:24:49;27.60;31.30
70820;DHT22;58439;51.046;13.692;2023-06-24T12:27:17;27.70;32.30
70820;DHT22;58439;51.046;13.692;2023-06-24T12:29:47;28.20;31.30
70820;DHT22;58439;51.046;13.692;2023-06-24T12:32:18;28.60;31.50
70820;DHT22;58439;51.046;13.692;2023-06-24T12:34:46;29.00;30.70
70820;DHT22;58439;51.046;13.692;2023-06-24T12:37:33;29.00;31.40
70820;DHT22;58439;51.046;13.692;2023-06-24T12:40:22;29.40;30.20
70820;DHT22;58439;51.046;13.692;2023-06-24T12:42:55;29.70;29.50
70820;DHT22;58439;51.046;13.692;2023-06-24T12:45:34;30.30;29.00
70820;DHT22;58439;51.046;13.692;2023-06-24T12:48:30;30.50;28.00
70820;DHT22;58439;51.046;13.692;2023-06-24T12:51:09;30.60;27.70
70820;DHT22;58439;51.046;13.692;2023-06-24T12:53:39;30.50;28.30
70820;DHT22;58439;51.046;13.692;2023-06-24T12:56:09;30.60;27.40
70820;DHT22;58439;51.046;13.692;2023-06-24T12:58:48;30.50;27.70
70820;DHT22;58439;51.046;13.692;2023-06-24T13:01:24;30.50;27.70
70820;DHT22;58439;51.046;13.692;2023-06-24T13:03:56;30.80;27.30
70820;DHT22;58439;51.046;13.692;2023-06-24T13:06:28;30.80;27.20
70820;DHT22;58439;51.046;13.692;2023-06-24T13:08:58;30.20;27.10
70820;DHT22;58439;51.046;13.692;2023-06-24T13:11:29;29.90;27.30
70820;DHT22;58439;51.046;13.692;2023-06-24T13:14:02;29.80;27.80
70820;DHT22;58439;51.046;13.692;2023-06-24T13:16:40;30.30;28.20
70820;DHT22;58439;51.046;13.692;2023-06-24T13:19:10;30.80;27.10
70820;DHT22;58439;51.046;13.692;2023-06-24T13:21:54;31.00;27.10
70820;DHT22;58439;51.046;13.692;2023-06-24T13:24:27;31.50;26.30
70820;DHT22;58439;51.046;13.692;2023-06-24T13:27:11;31.00;26.70
70820;DHT22;58439;51.046;13.692;2023-06-24T13:29:39;30.50;27.70
70820;DHT22;58439;51.046;13.692;2023-06-24T13:32:10;30.70;27.80
70820;DHT22;58439;51.046;13.692;2023-06-24T13:35:25;31.00;26.90
70820;DHT22;58439;51.046;13.692;2023-06-24T13:38:00;31.20;25.80
70820;DHT22;58439;51.046;13.692;2023-06-24T13:40:32;31.30;26.10
70820;DHT22;58439;51.046;13.692;2023-06-24T13:43:24;31.80;25.70
70820;DHT22;58439;51.046;13.692;2023-06-24T13:46:11;32.10;24.40
70820;DHT22;58439;51.046;13.692;2023-06-24T13:48:50;31.80;24.90
70820;DHT22;58439;51.046;13.692;2023-06-24T13:51:23;32.00;25.30
70820;DHT22;58439;51.046;13.692;2023-06-24T13:53:52;32.20;24.90
70820;DHT22;58439;51.046;13.692;2023-06-24T13:56:27;32.40;24.00
70820;DHT22;58439;51.046;13.692;2023-06-24T13:58:56;32.40;24.50
70820;DHT22;58439;51.046;13.692;2023-06-24T14:01:27;32.50;24.80
70820;DHT22;58439;51.046;13.692;2023-06-24T14:03:58;32.80;24.50
70820;DHT22;58439;51.046;13.692;2023-06-24T14:06:26;32.90;25.30
70820;DHT22;58439;51.046;13.692;2023-06-24T14:08:53;33.10;24.30
70820;DHT22;58439;51.046;13.692;2023-06-24T14:11:21;33.30;23.80
70820;DHT22;58439;51.046;13.692;2023-06-24T14:13:51;33.30;23.00
70820;DHT22;58439;51.046;13.692;2023-06-24T14:17:08;33.00;23.20
70820;DHT22;58439;51.046;13.692;2023-06-24T14:19:39;32.90;23.80
70820;DHT22;58439;51.046;13.692;2023-06-24T14:22:07;33.00;24.20
70820;DHT22;58439;51.046;13.692;2023-06-24T14:24:35;33.10;24.20
70820;DHT22;58439;51.046;13.692;2023-06-24T14:27:07;32.90;23.80
70820;DHT22;58439;51.046;13.692;2023-06-24T14:29:34;32.90;24.20
70820;DHT22;58439;51.046;13.692;2023-06-24T14:39:44;33.00;23.50
70820;DHT22;58439;51.046;13.692;2023-06-24T14:43:27;33.20;23.60
70820;DHT22;58439;51.046;13.692;2023-06-24T14:45:54;33.10;23.40
70820;DHT22;58439;51.046;13.692;2023-06-24T14:48:22;32.80;23.90
70820;DHT22;58439;51.046;13.692;2023-06-24T14:50:49;32.70;24.30
70820;DHT22;58439;51.046;13.692;2023-06-24T14:54:12;32.70;24.10
70820;DHT22;58439;51.046;13.692;2023-06-24T14:57:16;32.50;24.70
70820;DHT22;58439;51.046;13.692;2023-06-24T14:59:44;32.60;24.60
70820;DHT22;58439;51.046;13.692;2023-06-24T15:02:15;32.80;24.30
70820;DHT22;58439;51.046;13.692;2023-06-24T15:05:40;33.20;23.80
70820;DHT22;58439;51.046;13.692;2023-06-24T15:16:19;33.30;22.90
70820;DHT22;58439;51.046;13.692;2023-06-24T15:19:38;33.20;22.90
70820;DHT22;58439;51.046;13.692;2023-06-24T15:23:11;33.00;22.80
70820;DHT22;58439;51.046;13.692;2023-06-24T15:25:39;33.20;23.50
70820;DHT22;58439;51.046;13.692;2023-06-24T15:28:06;33.30;23.90
70820;DHT22;58439;51.046;13.692;2023-06-24T15:31:12;33.60;22.80
70820;DHT22;58439;51.046;13.692;2023-06-24T15:33:39;33.50;22.80
70820;DHT22;58439;51.046;13.692;2023-06-24T15:39:25;33.50;23.40
70820;DHT22;58439;51.046;13.692;2023-06-24T15:41:52;33.60;23.20
70820;DHT22;58439;51.046;13.692;2023-06-24T15:44:20;33.80;22.90
70820;DHT22;58439;51.046;13.692;2023-06-24T15:46:47;34.10;22.30
70820;DHT22;58439;51.046;13.692;2023-06-24T15:49:15;34.10;22.50
70820;DHT22;58439;51.046;13.692;2023-06-24T15:51:43;33.90;23.10
70820;DHT22;58439;51.046;13.692;2023-06-24T15:54:10;33.90;23.20
70820;DHT22;58439;51.046;13.692;2023-06-24T15:56:38;34.00;23.40
70820;DHT22;58439;51.046;13.692;2023-06-24T15:59:05;34.10;23.00
70820;DHT22;58439;51.046;13.692;2023-06-24T16:01:32;34.10;23.00
70820;DHT22;58439;51.046;13.692;2023-06-24T16:04:00;34.10;22.40
70820;DHT22;58439;51.046;13.692;2023-06-24T16:06:27;34.20;22.60
70820;DHT22;58439;51.046;13.692;2023-06-24T16:08:54;34.10;21.00
70820;DHT22;58439;51.046;13.692;2023-06-24T16:11:21;33.80;21.20
70820;DHT22;58439;51.046;13.692;2023-06-24T16:13:48;33.60;21.60
70820;DHT22;58439;51.046;13.692;2023-06-24T16:16:16;33.60;21.30
70820;DHT22;58439;51.046;13.692;2023-06-24T16:18:43;33.70;21.30
70820;DHT22;58439;51.046;13.692;2023-06-24T16:21:11;33.70;20.90
70820;DHT22;58439;51.046;13.692;2023-06-24T16:23:38;33.70;20.90
70820;DHT22;58439;51.046;13.692;2023-06-24T16:26:05;33.90;20.80
70820;DHT22;58439;51.046;13.692;2023-06-24T16:28:33;33.90;20.70
70820;DHT22;58439;51.046;13.692;2023-06-24T16:31:00;33.80;20.80
70820;DHT22;58439;51.046;13.692;2023-06-24T16:33:27;33.60;20.60
70820;DHT22;58439;51.046;13.692;2023-06-24T16:35:54;33.60;20.80